createdAt,value
2022-10-23T00:01:45.649Z,101352.05
2022-10-23T00:04:25.490Z,101355.48
2022-10-23T00:06:53.695Z,101356.35
2022-10-23T00:09:24.341Z,101357.25
2022-10-23T00:11:53.082Z,101360.85
2022-10-23T00:14:23.782Z,101364.05
2022-10-23T00:16:52.175Z,101367.40
2022-10-23T00:19:20.145Z,101362.44
2022-10-23T00:21:48.300Z,101366.54
2022-10-23T00:24:16.320Z,101366.79
2022-10-23T00:26:44.347Z,101368.51
2022-10-23T00:29:12.614Z,101369.58
2022-10-23T00:31:40.651Z,101370.60
2022-10-23T00:34:09.151Z,101373.60
2022-10-23T00:36:37.670Z,101378.96
2022-10-23T00:39:06.845Z,101379.67
2022-10-23T00:41:35.151Z,101375.37
2022-10-23T00:44:05.808Z,101378.20
2022-10-23T00:46:36.112Z,101375.95
2022-10-23T00:49:06.016Z,101375.82
2022-10-23T00:51:42.840Z,101375.85
2022-10-23T00:54:29.412Z,101374.34
2022-10-23T00:57:00.416Z,101362.88
2022-10-23T00:59:30.144Z,101377.26
2022-10-23T01:01:59.753Z,101381.73
2022-10-23T01:04:31.075Z,101385.57
2022-10-23T01:07:13.251Z,101384.84
2022-10-23T01:10:13.635Z,101383.08
2022-10-23T01:13:00.425Z,101388.61
2022-10-23T01:15:45.883Z,101387.75
2022-10-23T01:18:19.648Z,101385.45
2022-10-23T01:21:28.988Z,101389.35
2022-10-23T01:24:37.192Z,101388.36
2022-10-23T01:27:26.768Z,101393.20
2022-10-23T01:30:16.765Z,101393.94
2022-10-23T01:32:48.172Z,101394.38
2022-10-23T01:35:19.894Z,101393.36
2022-10-23T01:38:06.370Z,101390.82
2022-10-23T01:40:44.696Z,101391.02
2022-10-23T01:43:18.204Z,101389.21
2022-10-23T01:45:51.459Z,101387.16
2022-10-23T01:48:28.047Z,101390.81
2022-10-23T01:51:00.241Z,101393.15
2022-10-23T01:53:32.212Z,101393.73
2022-10-23T01:56:04.216Z,101392.77
2022-10-23T01:58:34.795Z,101390.23
2022-10-23T02:01:06.617Z,101392.01
2022-10-23T02:03:37.659Z,101396.02
2022-10-23T02:06:06.459Z,101388.80
2022-10-23T02:08:34.958Z,101390.40
2022-10-23T02:11:09.142Z,101388.15
2022-10-23T02:13:44.174Z,101387.77
2022-10-23T02:16:38.710Z,101378.67
2022-10-23T02:19:14.200Z,101379.00
2022-10-23T02:21:50.375Z,101391.91
2022-10-23T02:24:25.602Z,101398.31
2022-10-23T02:26:57.398Z,101395.10
2022-10-23T02:29:33.987Z,101396.02
2022-10-23T02:32:02.590Z,101402.86
2022-10-23T02:34:30.658Z,101405.11
2022-10-23T02:36:59.178Z,101404.55
2022-10-23T02:39:28.306Z,101404.70
2022-10-23T02:42:28.910Z,101399.49
2022-10-23T02:45:07.389Z,101400.52
2022-10-23T02:47:50.554Z,101401.49
2022-10-23T02:50:28.000Z,101403.55
2022-10-23T02:53:21.234Z,101402.44
2022-10-23T02:55:55.318Z,101397.92
2022-10-23T02:58:49.682Z,101394.20
2022-10-23T03:01:22.728Z,101393.99
2022-10-23T03:03:55.414Z,101393.34
2022-10-23T03:06:24.471Z,101389.40
2022-10-23T03:09:02.166Z,101393.62
2022-10-23T03:11:30.279Z,101397.84
2022-10-23T03:13:58.922Z,101400.10
2022-10-23T03:16:27.837Z,101400.59
2022-10-23T03:18:56.290Z,101403.83
2022-10-23T03:21:24.517Z,101407.77
2022-10-23T03:23:54.167Z,101409.37
2022-10-23T03:26:29.098Z,101406.25
2022-10-23T03:28:57.163Z,101405.05
2022-10-23T03:31:25.862Z,101407.64
2022-10-23T03:33:57.099Z,101408.05
2022-10-23T03:36:25.233Z,101407.44
2022-10-23T03:38:53.712Z,101402.60
2022-10-23T03:41:22.174Z,101406.41
2022-10-23T03:43:50.298Z,101406.94
2022-10-23T03:46:18.670Z,101408.30
2022-10-23T03:48:51.248Z,101406.83
2022-10-23T03:51:19.303Z,101408.67
2022-10-23T03:53:47.363Z,101407.77
2022-10-23T03:56:17.263Z,101406.02
2022-10-23T03:58:45.392Z,101409.09
2022-10-23T04:01:14.401Z,101406.06
2022-10-23T04:03:42.507Z,101406.71
2022-10-23T04:06:10.602Z,101405.86
2022-10-23T04:08:39.173Z,101407.79
2022-10-23T04:11:13.954Z,101408.48
2022-10-23T04:13:48.079Z,101397.33
2022-10-23T04:16:16.534Z,101411.40
2022-10-23T04:18:47.731Z,101412.02
2022-10-23T04:21:16.533Z,101415.82
2022-10-23T04:23:44.990Z,101421.52
2022-10-23T04:26:15.642Z,101418.65
2022-10-23T04:28:43.737Z,101405.55
2022-10-23T04:31:12.208Z,101403.50
2022-10-23T04:33:42.717Z,101406.41
2022-10-23T04:36:10.991Z,101414.29
2022-10-23T04:38:41.230Z,101415.80
2022-10-23T04:41:09.894Z,101421.99
2022-10-23T04:43:37.923Z,101422.49
2022-10-23T04:46:06.537Z,101426.38
2022-10-23T04:48:35.203Z,101435.84
2022-10-23T04:51:21.419Z,101434.22
2022-10-23T04:53:56.125Z,101439.35
2022-10-23T04:56:38.485Z,101438.94
2022-10-23T04:59:13.454Z,101438.58
2022-10-23T05:01:42.261Z,101439.73
2022-10-23T05:04:11.041Z,101439.52
2022-10-23T05:06:59.073Z,101436.12
2022-10-23T05:09:45.512Z,101439.06
2022-10-23T05:12:25.562Z,101445.26
2022-10-23T05:14:54.498Z,101443.61
2022-10-23T05:17:32.402Z,101443.16
2022-10-23T05:20:03.341Z,101449.10
2022-10-23T05:22:35.505Z,101452.99
2022-10-23T05:25:05.909Z,101451.31
2022-10-23T05:27:34.845Z,101452.38
2022-10-23T05:30:04.977Z,101450.29
2022-10-23T05:32:37.406Z,101448.33
2022-10-23T05:35:17.332Z,101451.27
2022-10-23T05:37:50.301Z,101450.73
2022-10-23T05:40:22.114Z,101451.77
2022-10-23T05:42:53.333Z,101453.42
2022-10-23T05:45:29.409Z,101456.70
2022-10-23T05:48:33.689Z,101450.89
2022-10-23T05:51:23.344Z,101452.30
2022-10-23T05:53:59.897Z,101454.61
2022-10-23T05:56:38.515Z,101454.87
2022-10-23T05:59:11.758Z,101455.85
2022-10-23T06:01:50.483Z,101451.96
2022-10-23T06:04:36.786Z,101449.25
2022-10-23T06:07:35.751Z,101449.86
2022-10-23T06:10:06.521Z,101447.45
2022-10-23T06:12:37.128Z,101449.78
2022-10-23T06:15:05.965Z,101455.18
2022-10-23T06:18:18.305Z,101456.33
2022-10-23T06:21:02.226Z,101442.91
2022-10-23T06:23:32.548Z,101465.55
2022-10-23T06:26:23.402Z,101469.20
2022-10-23T06:29:11.922Z,101465.10
2022-10-23T06:31:42.990Z,101467.23
2022-10-23T06:34:12.362Z,101466.38
2022-10-23T06:36:40.734Z,101468.54
2022-10-23T06:39:26.232Z,101470.67
2022-10-23T06:42:11.279Z,101467.19
2022-10-23T06:44:57.991Z,101467.95
2022-10-23T06:47:44.929Z,101466.52
2022-10-23T06:50:16.078Z,101460.08
2022-10-23T06:52:47.613Z,101459.25
2022-10-23T06:55:19.304Z,101462.84
2022-10-23T06:57:47.851Z,101465.33
2022-10-23T07:00:16.166Z,101464.21
2022-10-23T07:02:51.007Z,101464.46
2022-10-23T07:05:20.538Z,101465.12
2022-10-23T07:07:49.006Z,101467.34
2022-10-23T07:10:22.430Z,101443.61
2022-10-23T07:13:00.926Z,101472.19
2022-10-23T07:15:47.210Z,101473.66
2022-10-23T07:18:17.318Z,101472.35
2022-10-23T07:21:14.464Z,101474.56
2022-10-23T07:23:43.362Z,101475.54
2022-10-23T07:26:15.589Z,101481.07
2022-10-23T07:28:46.474Z,101484.88
2022-10-23T07:31:15.960Z,101482.92
2022-10-23T07:34:05.391Z,101478.45
2022-10-23T07:36:33.630Z,101482.66
2022-10-23T07:39:01.833Z,101474.09
2022-10-23T07:41:30.286Z,101471.48
2022-10-23T07:43:58.740Z,101472.39
2022-10-23T07:46:27.083Z,101474.85
2022-10-23T07:48:55.314Z,101474.35
2022-10-23T07:51:23.553Z,101478.41
2022-10-23T07:53:56.865Z,101479.67
2022-10-23T07:57:03.461Z,101475.83
2022-10-23T07:59:45.714Z,101462.33
2022-10-23T08:02:15.775Z,101479.52
2022-10-23T08:04:44.794Z,101482.23
2022-10-23T08:07:23.777Z,101478.45
2022-10-23T08:09:53.656Z,101483.17
2022-10-23T08:12:22.025Z,101483.30
2022-10-23T08:14:50.336Z,101482.10
2022-10-23T08:17:25.074Z,101482.59
2022-10-23T08:20:13.865Z,101465.33
2022-10-23T08:22:43.793Z,101480.77
2022-10-23T08:25:12.388Z,101484.01
2022-10-23T08:27:41.673Z,101483.77
2022-10-23T08:30:10.865Z,101486.60
2022-10-23T08:32:39.200Z,101481.48
2022-10-23T08:35:08.184Z,101488.69
2022-10-23T08:37:37.800Z,101486.97
2022-10-23T08:40:07.384Z,101483.64
2022-10-23T08:43:05.500Z,101485.94
2022-10-23T08:45:40.752Z,101494.88
2022-10-23T08:48:30.464Z,101499.80
2022-10-23T08:51:39.808Z,101496.48
2022-10-23T08:54:16.067Z,101470.41
2022-10-23T08:57:10.524Z,101496.48
2022-10-23T08:59:50.268Z,101506.77
2022-10-23T09:02:23.365Z,101508.23
2022-10-23T09:04:53.925Z,101513.98
2022-10-23T09:07:37.401Z,101511.53
2022-10-23T09:10:17.469Z,101512.84
2022-10-23T09:12:46.210Z,101511.16
2022-10-23T09:15:35.285Z,101513.58
2022-10-23T09:18:14.133Z,101514.07
2022-10-23T09:20:45.777Z,101513.66
2022-10-23T09:23:23.310Z,101494.68
2022-10-23T09:25:57.148Z,101518.21
2022-10-23T09:28:31.240Z,101518.59
2022-10-23T09:31:19.314Z,101518.25
2022-10-23T09:33:56.240Z,101516.90
2022-10-23T09:36:26.004Z,101518.01
2022-10-23T09:38:56.356Z,101521.13
2022-10-23T09:41:43.162Z,101523.63
2022-10-23T09:44:17.076Z,101524.40
2022-10-23T09:46:55.584Z,101527.23
2022-10-23T09:49:32.534Z,101523.45
2022-10-23T09:52:10.179Z,101526.66
2022-10-23T09:54:47.087Z,101530.48
2022-10-23T09:57:51.024Z,101524.48
2022-10-23T10:00:25.646Z,101523.05
2022-10-23T10:03:02.851Z,101525.58
2022-10-23T10:05:42.492Z,101521.21
2022-10-23T10:08:38.080Z,101520.38
2022-10-23T10:11:23.133Z,101516.02
2022-10-23T10:13:54.300Z,101502.15
2022-10-23T10:19:15.490Z,101507.08
2022-10-23T10:22:12.204Z,101507.64
2022-10-23T10:24:49.544Z,101503.69
2022-10-23T10:27:38.576Z,101496.60
2022-10-23T10:30:24.044Z,101510.52
2022-10-23T10:33:02.404Z,101509.73
2022-10-23T10:35:33.393Z,101509.45
2022-10-23T10:38:21.313Z,101509.77
2022-10-23T10:41:14.621Z,101507.73
2022-10-23T10:43:58.179Z,101504.88
2022-10-23T10:46:38.463Z,101506.14
2022-10-23T10:49:13.069Z,101509.45
2022-10-23T10:52:16.573Z,101511.59
2022-10-23T10:54:52.800Z,101510.52
2022-10-23T10:57:35.185Z,101512.68
2022-10-23T11:00:15.755Z,101512.09
2022-10-23T11:02:49.060Z,101511.75
2022-10-23T11:05:17.472Z,101512.78
2022-10-23T11:08:14.695Z,101507.76
2022-10-23T11:10:48.483Z,101510.59
2022-10-23T11:13:35.792Z,101515.99
2022-10-23T11:16:09.141Z,101517.14
2022-10-23T11:18:40.904Z,101515.92
2022-10-23T11:21:38.204Z,101512.95
2022-10-23T11:24:36.580Z,101513.09
2022-10-23T11:27:26.465Z,101517.27
2022-10-23T11:30:35.266Z,101523.41
2022-10-23T11:33:28.664Z,101523.27
2022-10-23T11:36:16.799Z,101525.63
2022-10-23T11:38:50.994Z,101521.73
2022-10-23T11:41:27.438Z,101521.88
2022-10-23T11:44:03.960Z,101523.36
2022-10-23T11:46:39.200Z,101522.13
2022-10-23T11:49:21.170Z,101516.81
2022-10-23T11:52:00.737Z,101517.20
2022-10-23T11:54:29.832Z,101515.36
2022-10-23T11:57:10.339Z,101518.01
2022-10-23T11:59:45.417Z,101516.58
2022-10-23T12:02:27.765Z,101514.24
2022-10-23T12:04:56.576Z,101515.59
2022-10-23T12:07:32.672Z,101506.08
2022-10-23T12:10:00.905Z,101518.75
2022-10-23T12:12:43.510Z,101521.47
2022-10-23T12:15:11.749Z,101518.69
2022-10-23T12:17:41.712Z,101510.61
2022-10-23T12:20:13.448Z,101509.98
2022-10-23T12:22:59.577Z,101514.73
2022-10-23T12:25:46.401Z,101516.09
2022-10-23T12:28:28.637Z,101507.63
2022-10-23T12:31:09.494Z,101524.52
2022-10-23T12:33:52.981Z,101504.67
2022-10-23T12:36:48.872Z,101516.27
2022-10-23T12:39:29.565Z,101514.14
2022-10-23T12:42:00.682Z,101519.17
2022-10-23T12:44:31.477Z,101514.54
2022-10-23T12:47:02.700Z,101486.86
2022-10-23T12:49:33.840Z,101511.48
2022-10-23T12:52:03.601Z,101511.27
2022-10-23T12:54:34.129Z,101509.27
2022-10-23T12:57:02.538Z,101502.20
2022-10-23T12:59:38.880Z,101503.98
2022-10-23T13:02:28.490Z,101506.71
2022-10-23T13:05:01.241Z,101500.79
2022-10-23T13:07:34.633Z,101503.69
2022-10-23T13:10:05.834Z,101506.24
2022-10-23T13:12:40.947Z,101505.20
2022-10-23T13:15:11.014Z,101502.70
2022-10-23T13:17:44.725Z,101496.21
2022-10-23T13:20:26.827Z,101492.05
2022-10-23T13:23:10.357Z,101491.43
2022-10-23T13:25:39.905Z,101494.86
2022-10-23T13:28:08.324Z,101496.39
2022-10-23T13:30:42.289Z,101495.86
2022-10-23T13:33:24.245Z,101498.92
2022-10-23T13:36:00.541Z,101497.94
2022-10-23T13:38:37.011Z,101495.95
2022-10-23T13:41:13.738Z,101498.10
2022-10-23T13:43:43.201Z,101490.23
2022-10-23T13:46:22.514Z,101502.96
2022-10-23T13:48:50.773Z,101504.73
2022-10-23T13:51:28.189Z,101504.77
2022-10-23T13:53:57.765Z,101505.20
2022-10-23T13:56:27.809Z,101508.17
2022-10-23T13:58:56.233Z,101508.97
2022-10-23T14:01:33.991Z,101500.33
2022-10-23T14:04:04.577Z,101506.70
2022-10-23T14:06:34.097Z,101504.69
2022-10-23T14:09:02.541Z,101495.83
2022-10-23T14:11:32.454Z,101504.05
2022-10-23T14:14:00.911Z,101504.96
2022-10-23T14:16:29.598Z,101508.20
2022-10-23T14:18:57.925Z,101503.76
2022-10-23T14:21:26.268Z,101504.29
2022-10-23T14:23:54.778Z,101502.99
2022-10-23T14:26:26.069Z,101500.17
2022-10-23T14:28:56.891Z,101499.86
2022-10-23T14:31:27.328Z,101498.61
2022-10-23T14:33:58.925Z,101494.66
2022-10-23T14:36:34.381Z,101489.62
2022-10-23T14:39:11.913Z,101491.74
2022-10-23T14:41:40.833Z,101494.11
2022-10-23T14:44:09.044Z,101494.43
2022-10-23T14:46:38.530Z,101501.87
2022-10-23T14:49:07.227Z,101502.82
2022-10-23T14:51:36.037Z,101503.13
2022-10-23T14:54:06.307Z,101505.69
2022-10-23T14:56:37.750Z,101504.29
2022-10-23T14:59:06.742Z,101499.80
2022-10-23T15:01:43.523Z,101496.39
2022-10-23T15:04:16.210Z,101481.64
2022-10-23T15:06:46.472Z,101493.69
2022-10-23T15:09:15.848Z,101499.38
2022-10-23T15:11:44.131Z,101497.42
2022-10-23T15:14:13.064Z,101498.00
2022-10-23T15:16:42.306Z,101504.84
2022-10-23T15:19:15.408Z,101501.70
2022-10-23T15:21:48.141Z,101472.27
2022-10-23T15:24:17.535Z,101496.98
2022-10-23T15:26:45.816Z,101502.79
2022-10-23T15:29:15.175Z,101500.92
2022-10-23T15:31:47.192Z,101502.98
2022-10-23T15:34:21.647Z,101505.70
2022-10-23T15:36:51.253Z,101508.30
2022-10-23T15:39:26.356Z,101511.27
2022-10-23T15:41:57.245Z,101516.63
2022-10-23T15:44:28.357Z,101516.17
2022-10-23T15:46:57.556Z,101527.46
2022-10-23T15:49:27.609Z,101519.86
2022-10-23T15:51:56.965Z,101520.27
2022-10-23T15:55:03.077Z,101518.82
2022-10-23T15:57:31.468Z,101518.40
2022-10-23T15:59:59.782Z,101518.64
2022-10-23T16:02:28.201Z,101516.39
2022-10-23T16:04:56.672Z,101517.45
2022-10-23T16:07:25.288Z,101512.84
2022-10-23T16:09:54.204Z,101516.64
2022-10-23T16:12:22.595Z,101514.33
2022-10-23T16:14:51.986Z,101515.23
2022-10-23T16:17:20.303Z,101507.95
2022-10-23T16:19:48.551Z,101519.11
2022-10-23T16:22:17.637Z,101519.73
2022-10-23T16:24:45.851Z,101523.21
2022-10-23T16:27:14.178Z,101519.98
2022-10-23T16:29:42.453Z,101521.69
2022-10-23T16:32:10.938Z,101521.90
2022-10-23T16:34:39.266Z,101524.83
2022-10-23T16:37:07.526Z,101525.54
2022-10-23T16:39:59.977Z,101520.02
2022-10-23T16:42:34.428Z,101525.11
2022-10-23T16:45:22.309Z,101521.64
2022-10-23T16:47:50.552Z,101528.73
2022-10-23T16:50:18.785Z,101527.86
2022-10-23T16:52:48.351Z,101530.08
2022-10-23T16:55:18.356Z,101517.43
2022-10-23T16:57:46.800Z,101525.21
2022-10-23T17:00:15.988Z,101533.33
2022-10-23T17:02:44.512Z,101538.33
2022-10-23T17:05:13.201Z,101522.55
2022-10-23T17:07:41.699Z,101540.22
2022-10-23T17:10:10.272Z,101540.26
2022-10-23T17:12:39.037Z,101538.31
2022-10-23T17:15:08.248Z,101541.20
2022-10-23T17:17:36.645Z,101541.32
2022-10-23T17:20:05.193Z,101540.13
2022-10-23T17:22:35.714Z,101538.93
2022-10-23T17:25:04.265Z,101538.64
2022-10-23T17:27:32.710Z,101541.41
2022-10-23T17:30:01.001Z,101539.44
2022-10-23T17:32:29.393Z,101544.56
2022-10-23T17:34:57.704Z,101541.04
2022-10-23T17:37:26.540Z,101536.48
2022-10-23T17:39:55.807Z,101538.33
2022-10-23T17:42:25.300Z,101537.30
2022-10-23T17:44:54.284Z,101536.89
2022-10-23T17:47:23.020Z,101539.88
2022-10-23T17:49:51.328Z,101539.14
2022-10-23T17:52:20.068Z,101541.02
2022-10-23T17:54:52.572Z,101537.67
2022-10-23T17:57:20.826Z,101539.09
2022-10-23T17:59:49.061Z,101544.52
2022-10-23T18:02:17.408Z,101545.19
2022-10-23T18:04:45.630Z,101547.39
2022-10-23T18:07:15.026Z,101546.61
2022-10-23T18:09:45.639Z,101545.07
2022-10-23T18:12:14.457Z,101547.31
2022-10-23T18:14:43.293Z,101550.23
2022-10-23T18:17:11.804Z,101551.91
2022-10-23T18:19:40.345Z,101551.80
2022-10-23T18:22:08.604Z,101552.50
2022-10-23T18:24:38.124Z,101554.77
2022-10-23T18:27:07.118Z,101548.56
2022-10-23T18:29:35.341Z,101542.97
2022-10-23T18:32:03.833Z,101538.34
2022-10-23T18:34:32.160Z,101539.45
2022-10-23T18:37:01.092Z,101538.66
2022-10-23T18:39:29.322Z,101544.94
2022-10-23T18:41:58.713Z,101546.36
2022-10-23T18:44:29.354Z,101542.72
2022-10-23T18:46:59.001Z,101547.11
2022-10-23T18:49:27.416Z,101548.91
2022-10-23T18:51:55.797Z,101550.95
2022-10-23T18:54:24.557Z,101553.98
2022-10-23T18:56:52.743Z,101554.45
2022-10-23T18:59:21.885Z,101543.45
2022-10-23T19:01:50.521Z,101548.08
2022-10-23T19:04:19.428Z,101545.70
2022-10-23T19:06:50.259Z,101543.20
2022-10-23T19:09:19.057Z,101542.02
2022-10-23T19:11:47.671Z,101539.69
2022-10-23T19:14:16.064Z,101536.16
2022-10-23T19:17:04.238Z,101531.75
2022-10-23T19:19:40.118Z,101526.05
2022-10-23T19:22:10.005Z,101530.51
2022-10-23T19:24:49.043Z,101526.82
2022-10-23T19:27:19.449Z,101528.52
2022-10-23T19:29:50.305Z,101522.86
2022-10-23T19:32:18.513Z,101519.91
2022-10-23T19:34:46.830Z,101516.22
2022-10-23T19:37:16.102Z,101509.45
2022-10-23T19:39:44.353Z,101511.86
2022-10-23T19:42:13.189Z,101509.83
2022-10-23T19:44:41.281Z,101510.86
2022-10-23T19:47:09.569Z,101510.53
2022-10-23T19:49:38.468Z,101507.55
2022-10-23T19:52:06.846Z,101505.80
2022-10-23T19:54:34.998Z,101503.29
2022-10-23T19:57:03.413Z,101502.02
2022-10-23T19:59:31.481Z,101499.20
2022-10-23T20:01:59.831Z,101490.75
2022-10-23T20:04:29.105Z,101487.96
2022-10-23T20:06:57.484Z,101486.89
2022-10-23T20:09:25.765Z,101488.77
2022-10-23T20:11:54.002Z,101477.91
2022-10-23T20:14:22.178Z,101488.10
2022-10-23T20:16:54.953Z,101488.23
2022-10-23T20:19:24.130Z,101479.78
2022-10-23T20:21:52.285Z,101482.29
2022-10-23T20:24:21.573Z,101486.71
2022-10-23T20:26:54.824Z,101490.23
2022-10-23T20:29:24.986Z,101488.50
2022-10-23T20:31:53.214Z,101486.90
2022-10-23T20:34:21.487Z,101486.92
2022-10-23T20:36:50.012Z,101487.34
2022-10-23T20:39:27.133Z,101489.95
2022-10-23T20:41:56.481Z,101489.54
2022-10-23T20:44:24.932Z,101490.93
2022-10-23T20:46:53.556Z,101488.76
2022-10-23T20:49:22.744Z,101493.83
2022-10-23T20:51:56.168Z,101494.42
2022-10-23T20:54:28.999Z,101492.88
2022-10-23T20:56:57.272Z,101480.41
2022-10-23T20:59:25.559Z,101496.37
2022-10-23T21:01:55.594Z,101496.02
2022-10-23T21:04:28.078Z,101492.34
2022-10-23T21:07:09.599Z,101491.40
2022-10-23T21:09:40.215Z,101488.80
2022-10-23T21:12:09.092Z,101486.60
2022-10-23T21:14:37.415Z,101488.80
2022-10-23T21:17:08.540Z,101480.84
2022-10-23T21:19:37.001Z,101493.66
2022-10-23T21:22:05.407Z,101485.27
2022-10-23T21:24:33.851Z,101496.20
2022-10-23T21:27:02.357Z,101495.92
2022-10-23T21:29:30.939Z,101493.63
2022-10-23T21:32:01.651Z,101491.67
2022-10-23T21:34:30.475Z,101495.55
2022-10-23T21:37:14.836Z,101499.48
2022-10-23T21:39:44.823Z,101484.16
2022-10-23T21:42:14.582Z,101499.08
2022-10-23T21:44:42.749Z,101504.23
2022-10-23T21:47:11.466Z,101492.98
2022-10-23T21:49:39.703Z,101498.46
2022-10-23T21:52:08.483Z,101499.48
2022-10-23T21:54:37.338Z,101494.21
2022-10-23T21:57:12.378Z,101496.05
2022-10-23T21:59:41.160Z,101499.42
2022-10-23T22:02:09.627Z,101490.35
2022-10-23T22:04:39.091Z,101486.38
2022-10-23T22:07:07.901Z,101486.84
2022-10-23T22:09:36.208Z,101484.71
2022-10-23T22:12:04.426Z,101487.86
2022-10-23T22:14:32.705Z,101490.71
2022-10-23T22:17:00.826Z,101488.84
2022-10-23T22:19:28.937Z,101489.83
2022-10-23T22:21:57.140Z,101491.67
2022-10-23T22:24:25.273Z,101491.52
2022-10-23T22:26:56.091Z,101494.14
2022-10-23T22:29:27.452Z,101494.34
2022-10-23T22:31:56.818Z,101497.98
2022-10-23T22:34:48.265Z,101501.27
2022-10-23T22:37:16.283Z,101506.91
2022-10-23T22:39:44.468Z,101507.16
2022-10-23T22:42:12.814Z,101505.41
2022-10-23T22:44:41.223Z,101509.02
2022-10-23T22:47:09.338Z,101505.86
2022-10-23T22:49:38.492Z,101506.52
2022-10-23T22:52:06.795Z,101509.35
2022-10-23T22:54:34.959Z,101514.62
2022-10-23T22:57:03.110Z,101508.48
2022-10-23T22:59:31.274Z,101500.59
2022-10-23T23:01:59.394Z,101497.93
2022-10-23T23:04:43.308Z,101490.70
2022-10-23T23:07:13.039Z,101482.39
2022-10-23T23:09:44.531Z,101478.45
2022-10-23T23:12:14.380Z,101480.34
2022-10-23T23:14:43.041Z,101475.73
2022-10-23T23:17:12.034Z,101471.85
2022-10-23T23:19:40.192Z,101468.75
2022-10-23T23:22:08.524Z,101459.86
2022-10-23T23:24:37.053Z,101463.48
2022-10-23T23:27:05.234Z,101464.11
2022-10-23T23:29:33.535Z,101445.33
2022-10-23T23:32:01.715Z,101457.49
2022-10-23T23:34:30.003Z,101453.86
2022-10-23T23:36:58.485Z,101443.92
2022-10-23T23:39:28.607Z,101440.81
2022-10-23T23:41:56.881Z,101440.80
2022-10-23T23:44:25.024Z,101441.45
2022-10-23T23:46:53.200Z,101451.66
2022-10-23T23:49:21.724Z,101458.00
2022-10-23T23:51:49.892Z,101454.89
2022-10-23T23:54:18.355Z,101448.55
2022-10-23T23:56:46.440Z,101448.90
2022-10-23T23:59:15.131Z,101458.14
